createdAt,value
2022-10-26T00:01:12.623Z,62.87
2022-10-26T00:06:19.288Z,62.65
2022-10-26T00:11:23.219Z,61.50
2022-10-26T00:16:29.097Z,61.82
2022-10-26T00:21:34.210Z,61.84
2022-10-26T00:26:38.266Z,62.10
2022-10-26T00:31:42.227Z,61.45
2022-10-26T00:36:47.026Z,61.78
2022-10-26T00:41:50.804Z,62.08
2022-10-26T00:46:54.583Z,61.73
2022-10-26T00:51:59.866Z,62.41
2022-10-26T00:57:03.722Z,62.49
2022-10-26T01:02:07.777Z,62.01
2022-10-26T01:07:13.335Z,62.54
2022-10-26T01:12:17.155Z,62.22
2022-10-26T01:17:40.147Z,62.57
2022-10-26T01:22:53.603Z,63.21
2022-10-26T01:27:58.097Z,63.19
2022-10-26T01:33:21.795Z,63.55
2022-10-26T01:38:32.339Z,64.01
2022-10-26T01:43:40.221Z,64.03
2022-10-26T01:48:47.409Z,64.22
2022-10-26T01:53:50.829Z,63.98
2022-10-26T01:59:10.131Z,65.36
2022-10-26T02:04:27.299Z,64.89
2022-10-26T02:09:40.281Z,64.29
2022-10-26T02:14:51.100Z,64.16
2022-10-26T02:20:00.837Z,63.90
2022-10-26T02:25:09.538Z,64.48
2022-10-26T02:30:14.773Z,63.91
2022-10-26T02:35:23.736Z,63.60
2022-10-26T02:40:29.751Z,63.89
2022-10-26T02:45:38.758Z,63.79
2022-10-26T02:50:52.517Z,63.31
2022-10-26T02:55:56.316Z,63.41
2022-10-26T03:01:00.991Z,63.23
2022-10-26T03:06:06.314Z,62.92
2022-10-26T03:11:10.498Z,63.25
2022-10-26T03:16:14.312Z,62.49
2022-10-26T03:21:19.567Z,63.04
2022-10-26T03:26:23.256Z,62.93
2022-10-26T03:31:27.143Z,63.00
2022-10-26T03:36:33.128Z,63.03
2022-10-26T03:41:36.897Z,62.67
2022-10-26T03:46:40.640Z,62.74
2022-10-26T03:51:45.793Z,62.69
2022-10-26T03:56:52.661Z,61.96
2022-10-26T04:01:58.892Z,62.68
2022-10-26T04:07:04.021Z,62.18
2022-10-26T04:12:08.319Z,62.32
2022-10-26T04:17:12.129Z,62.37
2022-10-26T04:22:17.578Z,62.07
2022-10-26T04:27:21.371Z,62.46
2022-10-26T04:32:24.794Z,62.36
2022-10-26T04:37:29.593Z,61.32
2022-10-26T04:42:37.763Z,62.12
2022-10-26T04:47:41.708Z,61.93
2022-10-26T04:52:52.228Z,60.93
2022-10-26T04:57:58.646Z,61.71
2022-10-26T05:03:06.721Z,60.94
2022-10-26T05:08:11.832Z,61.25
2022-10-26T05:13:15.387Z,60.39
2022-10-26T05:18:19.160Z,60.39
2022-10-26T05:23:24.591Z,59.79
2022-10-26T05:28:28.398Z,60.15
2022-10-26T05:33:31.777Z,59.99
2022-10-26T05:38:36.955Z,60.13
2022-10-26T05:43:40.426Z,59.14
2022-10-26T05:48:44.082Z,58.51
2022-10-26T05:53:49.993Z,57.91
2022-10-26T05:58:54.305Z,57.96
2022-10-26T06:04:12.168Z,56.44
2022-10-26T06:09:17.841Z,55.73
2022-10-26T06:14:21.743Z,54.89
2022-10-26T06:19:34.114Z,53.64
2022-10-26T06:24:46.374Z,51.50
2022-10-26T06:29:59.544Z,52.29
2022-10-26T06:35:16.577Z,50.19
2022-10-26T06:40:22.880Z,51.63
2022-10-26T06:45:27.274Z,50.61
2022-10-26T06:50:39.294Z,49.22
2022-10-26T06:55:46.129Z,48.60
2022-10-26T07:00:53.445Z,48.66
2022-10-26T07:05:57.167Z,49.15
2022-10-26T07:11:02.276Z,48.92
2022-10-26T07:16:06.450Z,48.57
2022-10-26T07:21:10.912Z,48.77
2022-10-26T07:26:16.235Z,48.31
2022-10-26T07:31:20.018Z,47.90
2022-10-26T07:36:24.043Z,47.67
2022-10-26T07:41:29.193Z,47.36
2022-10-26T07:46:33.150Z,47.41
2022-10-26T07:51:37.288Z,48.00
2022-10-26T07:56:42.412Z,48.55
2022-10-26T08:01:46.312Z,48.77
2022-10-26T08:06:50.169Z,48.77
2022-10-26T08:11:55.248Z,48.21
2022-10-26T08:17:00.096Z,48.33
2022-10-26T08:22:03.799Z,47.99
2022-10-26T08:27:09.092Z,47.34
2022-10-26T08:32:13.099Z,46.10
2022-10-26T08:37:16.638Z,45.42
2022-10-26T08:42:26.558Z,45.45
2022-10-26T08:47:34.491Z,44.70
2022-10-26T08:52:45.360Z,45.19
2022-10-26T08:57:52.143Z,44.40
2022-10-26T09:02:55.978Z,44.84
2022-10-26T09:08:09.332Z,44.29
2022-10-26T09:13:26.042Z,44.71
2022-10-26T09:18:39.736Z,44.19
2022-10-26T09:23:54.813Z,44.93
2022-10-26T09:29:02.790Z,45.46
2022-10-26T09:34:09.349Z,45.08
2022-10-26T09:39:20.896Z,45.38
2022-10-26T09:44:29.811Z,45.61
2022-10-26T09:49:42.456Z,46.11
2022-10-26T09:54:46.444Z,46.20
2022-10-26T09:59:53.099Z,46.60
2022-10-26T10:04:56.491Z,46.39
2022-10-26T10:10:09.714Z,46.26
2022-10-26T10:15:22.153Z,46.22
2022-10-26T10:20:32.522Z,46.37
2022-10-26T10:25:38.198Z,46.75
2022-10-26T10:30:54.778Z,47.18
2022-10-26T10:36:02.461Z,47.41
2022-10-26T10:41:07.713Z,47.48
2022-10-26T10:46:20.361Z,46.95
2022-10-26T10:51:27.261Z,47.60
2022-10-26T10:56:36.174Z,46.85
2022-10-26T11:01:46.766Z,47.68
2022-10-26T11:06:51.939Z,48.01
2022-10-26T11:11:58.481Z,47.21
2022-10-26T11:17:12.588Z,47.34
2022-10-26T11:22:20.139Z,47.43
2022-10-26T11:27:29.631Z,46.64
2022-10-26T11:32:42.925Z,46.78
2022-10-26T11:37:50.000Z,47.24
2022-10-26T11:43:03.283Z,46.65
2022-10-26T11:48:18.539Z,47.39
2022-10-26T11:53:29.269Z,48.06
2022-10-26T11:58:34.470Z,48.59
2022-10-26T12:03:47.097Z,47.63
2022-10-26T12:08:59.527Z,47.84
2022-10-26T12:14:08.621Z,48.00
2022-10-26T12:19:20.291Z,47.38
2022-10-26T12:24:28.974Z,48.48
2022-10-26T12:29:41.728Z,48.06
2022-10-26T12:35:26.407Z,47.50
2022-10-26T12:40:44.948Z,47.68
2022-10-26T12:46:09.529Z,47.82
2022-10-26T12:51:47.629Z,47.75
2022-10-26T12:56:56.862Z,47.80
2022-10-26T13:02:36.859Z,48.35
2022-10-26T13:07:43.254Z,48.04
2022-10-26T13:12:50.159Z,49.04
2022-10-26T13:18:03.307Z,48.79
2022-10-26T13:23:20.931Z,49.22
2022-10-26T13:28:43.716Z,48.25
2022-10-26T13:33:48.711Z,48.57
2022-10-26T13:38:54.797Z,49.51
2022-10-26T13:44:00.348Z,50.20
2022-10-26T13:49:10.380Z,50.20
2022-10-26T13:54:25.103Z,50.71
2022-10-26T13:59:32.735Z,50.38
2022-10-26T14:04:36.143Z,50.30
2022-10-26T14:09:43.605Z,49.92
2022-10-26T14:14:47.477Z,50.47
2022-10-26T14:19:53.452Z,49.95
2022-10-26T14:24:59.911Z,50.87
2022-10-26T14:30:21.545Z,51.17
2022-10-26T14:35:29.933Z,51.59
2022-10-26T14:40:37.519Z,51.88
2022-10-26T14:45:48.663Z,52.43
2022-10-26T14:51:03.923Z,52.98
2022-10-26T14:56:25.389Z,53.44
2022-10-26T15:01:35.739Z,53.22
2022-10-26T15:06:47.876Z,53.25
2022-10-26T15:11:53.058Z,52.64
2022-10-26T15:16:59.419Z,53.27
2022-10-26T15:22:03.162Z,52.78
2022-10-26T15:27:15.247Z,53.26
2022-10-26T15:32:23.144Z,53.01
2022-10-26T15:37:26.593Z,53.15
2022-10-26T15:42:31.970Z,53.48
2022-10-26T15:47:36.062Z,53.10
2022-10-26T15:52:39.821Z,54.55
2022-10-26T15:57:45.458Z,54.86
2022-10-26T16:02:48.814Z,54.19
2022-10-26T16:07:53.071Z,55.22
2022-10-26T16:12:59.366Z,55.38
2022-10-26T16:18:02.996Z,55.69
2022-10-26T16:23:06.863Z,55.98
2022-10-26T16:28:13.562Z,55.99
2022-10-26T16:33:17.036Z,56.53
2022-10-26T16:38:20.750Z,56.92
2022-10-26T16:43:25.841Z,57.21
2022-10-26T16:48:29.693Z,56.60
2022-10-26T16:53:33.130Z,56.87
2022-10-26T16:58:38.837Z,56.58
2022-10-26T17:03:42.211Z,57.24
2022-10-26T17:08:46.341Z,57.45
2022-10-26T17:13:55.191Z,58.16
2022-10-26T17:18:59.048Z,56.88
2022-10-26T17:24:04.171Z,56.91
2022-10-26T17:34:17.991Z,57.24
2022-10-26T17:39:21.907Z,57.29
2022-10-26T17:44:26.982Z,57.26
2022-10-26T17:49:35.091Z,57.54
2022-10-26T17:54:39.476Z,57.85
2022-10-26T17:59:45.981Z,57.81
2022-10-26T18:05:05.201Z,58.90
2022-10-26T18:10:33.259Z,58.56
2022-10-26T18:15:55.043Z,59.46
2022-10-26T18:21:02.700Z,59.37
2022-10-26T18:26:11.451Z,58.40
2022-10-26T18:31:21.233Z,58.19
2022-10-26T18:36:24.989Z,58.02
2022-10-26T18:41:29.353Z,58.36
2022-10-26T18:46:40.876Z,58.34
2022-10-26T18:51:44.905Z,58.00
2022-10-26T18:56:48.604Z,58.57
2022-10-26T19:01:53.998Z,58.94
2022-10-26T19:06:57.789Z,58.29
2022-10-26T19:12:03.760Z,58.31
2022-10-26T19:17:09.472Z,58.70
2022-10-26T19:22:13.208Z,58.65
2022-10-26T19:32:23.154Z,59.13
2022-10-26T19:37:28.479Z,59.00
2022-10-26T19:42:32.073Z,58.97
2022-10-26T19:47:37.568Z,59.08
2022-10-26T19:52:41.384Z,59.17
2022-10-26T19:57:46.424Z,58.74
2022-10-26T20:02:51.447Z,59.09
2022-10-26T20:07:55.453Z,58.63
2022-10-26T20:12:59.011Z,59.06
2022-10-26T20:18:04.454Z,58.92
2022-10-26T20:23:08.644Z,58.60
2022-10-26T20:28:12.507Z,59.37
2022-10-26T20:33:17.489Z,59.64
2022-10-26T20:38:21.778Z,59.14
2022-10-26T20:43:25.793Z,58.94
2022-10-26T20:48:31.956Z,58.90
2022-10-26T20:53:37.146Z,58.81
2022-10-26T20:58:42.655Z,58.64
2022-10-26T21:03:47.535Z,59.33
2022-10-26T21:08:51.410Z,59.05
2022-10-26T21:13:55.978Z,59.27
2022-10-26T21:19:01.772Z,58.45
2022-10-26T21:24:05.374Z,59.13
2022-10-26T21:29:09.138Z,58.70
2022-10-26T21:34:13.848Z,58.17
2022-10-26T21:39:17.484Z,58.24
2022-10-26T21:44:40.051Z,58.53
2022-10-26T21:49:46.184Z,58.18
2022-10-26T21:54:49.647Z,58.23
2022-10-26T21:59:53.338Z,57.80
2022-10-26T22:04:58.064Z,58.44
2022-10-26T22:10:15.180Z,57.72
2022-10-26T22:15:18.907Z,58.23
2022-10-26T22:20:24.014Z,58.22
2022-10-26T22:25:27.794Z,57.89
2022-10-26T22:30:31.534Z,57.71
2022-10-26T22:35:36.374Z,57.74
2022-10-26T22:40:40.170Z,58.06
2022-10-26T22:45:43.984Z,58.61
2022-10-26T22:50:49.518Z,58.63
2022-10-26T22:55:53.292Z,59.08
2022-10-26T23:01:03.361Z,59.73
2022-10-26T23:06:11.130Z,59.77
2022-10-26T23:11:16.646Z,59.71
2022-10-26T23:16:20.501Z,59.88
2022-10-26T23:26:35.221Z,60.24
2022-10-26T23:31:38.784Z,60.22
2022-10-26T23:36:43.519Z,60.22
2022-10-26T23:41:47.146Z,60.13
2022-10-26T23:46:50.924Z,60.01
2022-10-26T23:51:56.026Z,60.14
2022-10-26T23:56:59.981Z,60.27
